createdAt,value
2022-11-12T00:01:10.561Z,6.98
2022-11-12T00:03:57.366Z,7.22
2022-11-12T00:06:42.540Z,7.13
2022-11-12T00:09:27.926Z,7.13
2022-11-12T00:12:12.847Z,7.14
2022-11-12T00:14:57.745Z,7.21
2022-11-12T00:17:43.638Z,7.23
2022-11-12T00:20:28.832Z,7.14
2022-11-12T00:23:13.906Z,7.12
2022-11-12T00:25:59.810Z,7.07
2022-11-12T00:28:44.643Z,7.05
2022-11-12T00:31:29.755Z,6.96
2022-11-12T00:34:14.710Z,6.89
2022-11-12T00:37:00.117Z,6.89
2022-11-12T00:39:45.325Z,6.91
2022-11-12T00:42:30.770Z,6.91
2022-11-12T00:45:16.202Z,6.85
2022-11-12T00:48:01.117Z,6.92
2022-11-12T00:50:46.639Z,6.99
2022-11-12T00:53:31.736Z,7.07
2022-11-12T00:56:16.890Z,6.98
2022-11-12T00:59:01.803Z,6.94
2022-11-12T01:01:46.809Z,6.81
2022-11-12T01:04:32.256Z,6.78
2022-11-12T01:07:17.277Z,6.72
2022-11-12T01:10:02.451Z,6.71
2022-11-12T01:12:47.438Z,6.68
2022-11-12T01:15:32.286Z,6.64
2022-11-12T01:18:17.134Z,6.63
2022-11-12T01:21:02.609Z,6.63
2022-11-12T01:23:47.614Z,6.65
2022-11-12T01:26:32.587Z,6.58
2022-11-12T01:29:17.560Z,6.58
2022-11-12T01:32:02.462Z,6.56
2022-11-12T01:34:47.287Z,6.48
2022-11-12T01:37:32.188Z,6.45
2022-11-12T01:40:17.665Z,6.54
2022-11-12T01:43:03.079Z,6.50
2022-11-12T01:45:49.101Z,6.50
2022-11-12T01:48:47.094Z,6.47
2022-11-12T01:51:33.381Z,6.50
2022-11-12T01:54:19.036Z,6.46
2022-11-12T01:57:03.941Z,6.45
2022-11-12T01:59:49.160Z,6.47
2022-11-12T02:02:35.057Z,6.48
2022-11-12T02:05:20.232Z,6.47
2022-11-12T02:08:05.407Z,6.45
2022-11-12T02:10:50.742Z,6.50
2022-11-12T02:13:54.697Z,6.51
2022-11-12T02:16:41.188Z,6.69
2022-11-12T02:19:26.662Z,6.68
2022-11-12T02:22:12.048Z,6.59
2022-11-12T02:24:56.981Z,6.35
2022-11-12T02:27:41.847Z,6.35
2022-11-12T02:30:32.957Z,6.31
2022-11-12T02:33:17.913Z,6.28
2022-11-12T02:36:02.992Z,6.28
2022-11-12T02:38:47.973Z,6.28
2022-11-12T02:41:32.723Z,6.24
2022-11-12T02:44:17.619Z,6.24
2022-11-12T02:47:02.485Z,6.18
2022-11-12T02:49:47.471Z,6.23
2022-11-12T02:52:32.753Z,6.26
2022-11-12T02:55:17.757Z,6.26
2022-11-12T02:58:02.831Z,6.27
2022-11-12T03:00:48.571Z,6.21
2022-11-12T03:03:34.030Z,6.33
2022-11-12T03:06:19.079Z,6.42
2022-11-12T03:09:03.979Z,6.37
2022-11-12T03:11:48.823Z,6.37
2022-11-12T03:14:33.768Z,6.21
2022-11-12T03:17:19.474Z,6.22
2022-11-12T03:20:04.514Z,6.28
2022-11-12T03:22:56.546Z,6.36
2022-11-12T03:25:41.560Z,6.29
2022-11-12T03:28:26.674Z,6.25
2022-11-12T03:31:12.065Z,6.28
2022-11-12T03:33:56.913Z,6.30
2022-11-12T03:36:41.836Z,6.33
2022-11-12T03:39:26.844Z,6.25
2022-11-12T03:42:11.857Z,6.34
2022-11-12T03:44:57.055Z,6.29
2022-11-12T03:47:43.000Z,6.33
2022-11-12T03:50:28.517Z,6.27
2022-11-12T03:53:13.629Z,6.17
2022-11-12T03:55:58.808Z,6.08
2022-11-12T03:58:43.858Z,6.07
2022-11-12T04:01:29.322Z,6.10
2022-11-12T04:04:14.322Z,6.14
2022-11-12T04:07:17.977Z,6.03
2022-11-12T04:10:03.215Z,6.03
2022-11-12T04:13:06.832Z,6.05
2022-11-12T04:16:11.929Z,5.98
2022-11-12T04:19:16.160Z,6.00
2022-11-12T04:22:02.810Z,6.00
2022-11-12T04:25:06.924Z,6.19
2022-11-12T04:27:52.023Z,6.20
2022-11-12T04:30:37.378Z,6.18
2022-11-12T04:33:22.694Z,6.27
2022-11-12T04:36:07.662Z,6.13
2022-11-12T04:38:52.574Z,6.10
2022-11-12T04:41:56.178Z,6.06
2022-11-12T04:44:59.860Z,6.17
2022-11-12T04:47:45.028Z,6.17
2022-11-12T04:50:29.900Z,6.12
2022-11-12T04:53:15.000Z,6.17
2022-11-12T04:56:03.217Z,6.06
2022-11-12T04:58:48.436Z,6.17
2022-11-12T05:01:33.603Z,6.11
2022-11-12T05:04:19.025Z,6.05
2022-11-12T05:07:04.057Z,6.20
2022-11-12T05:09:49.499Z,6.01
2022-11-12T05:12:34.427Z,5.97
2022-11-12T05:15:19.359Z,5.96
2022-11-12T05:18:04.470Z,6.01
2022-11-12T05:20:51.423Z,6.07
2022-11-12T05:23:36.298Z,6.03
2022-11-12T05:26:21.217Z,6.12
2022-11-12T05:29:08.903Z,6.21
2022-11-12T05:31:56.834Z,6.17
2022-11-12T05:34:42.059Z,6.08
2022-11-12T05:37:27.156Z,6.17
2022-11-12T05:40:12.229Z,6.16
2022-11-12T05:42:57.530Z,6.16
2022-11-12T05:45:42.915Z,5.97
2022-11-12T05:48:28.451Z,5.89
2022-11-12T05:51:14.678Z,5.91
2022-11-12T05:54:00.948Z,5.93
2022-11-12T05:56:46.230Z,5.92
2022-11-12T05:59:31.468Z,5.84
2022-11-12T06:02:16.444Z,5.87
2022-11-12T06:05:01.860Z,5.76
2022-11-12T06:07:46.861Z,5.81
2022-11-12T06:10:32.887Z,5.79
2022-11-12T06:13:18.583Z,5.73
2022-11-12T06:16:03.494Z,5.91
2022-11-12T06:18:48.769Z,5.87
2022-11-12T06:21:33.726Z,5.85
2022-11-12T06:24:19.249Z,5.86
2022-11-12T06:27:04.105Z,5.71
2022-11-12T06:29:48.972Z,5.65
2022-11-12T06:32:34.059Z,5.86
2022-11-12T06:35:19.150Z,5.80
2022-11-12T06:38:04.249Z,5.77
2022-11-12T06:40:49.340Z,5.75
2022-11-12T06:43:34.492Z,5.97
2022-11-12T06:46:19.630Z,5.89
2022-11-12T06:49:04.761Z,5.99
2022-11-12T06:51:52.882Z,6.02
2022-11-12T06:54:37.867Z,6.12
2022-11-12T06:57:23.198Z,6.13
2022-11-12T07:00:12.198Z,6.28
2022-11-12T07:02:57.490Z,6.26
2022-11-12T07:05:43.123Z,6.25
2022-11-12T07:08:28.458Z,6.27
2022-11-12T07:11:14.111Z,6.32
2022-11-12T07:13:59.106Z,6.25
2022-11-12T07:16:46.184Z,6.47
2022-11-12T07:19:31.527Z,6.40
2022-11-12T07:22:16.488Z,6.29
2022-11-12T07:25:04.871Z,6.58
2022-11-12T07:27:50.358Z,6.68
2022-11-12T07:30:35.506Z,6.73
2022-11-12T07:33:20.549Z,7.00
2022-11-12T07:36:06.892Z,7.15
2022-11-12T07:38:52.688Z,7.29
2022-11-12T07:41:37.920Z,7.44
2022-11-12T07:44:22.822Z,7.51
2022-11-12T07:47:07.884Z,7.55
2022-11-12T07:49:52.991Z,7.56
2022-11-12T07:52:38.023Z,7.66
2022-11-12T07:55:23.182Z,7.66
2022-11-12T07:58:08.130Z,7.66
2022-11-12T08:00:53.367Z,7.82
2022-11-12T08:03:41.446Z,7.87
2022-11-12T08:06:26.970Z,8.04
2022-11-12T08:09:12.303Z,8.09
2022-11-12T08:11:57.391Z,8.36
2022-11-12T08:14:43.057Z,8.41
2022-11-12T08:17:28.186Z,8.62
2022-11-12T08:20:13.409Z,8.77
2022-11-12T08:23:01.763Z,8.97
2022-11-12T08:25:47.878Z,9.09
2022-11-12T08:28:33.556Z,9.18
2022-11-12T08:31:19.837Z,9.32
2022-11-12T08:34:12.681Z,9.32
2022-11-12T08:36:58.164Z,9.25
2022-11-12T08:39:43.271Z,9.36
2022-11-12T08:42:28.112Z,9.40
2022-11-12T08:45:13.201Z,9.39
2022-11-12T08:48:05.612Z,9.41
2022-11-12T08:50:50.520Z,9.48
2022-11-12T08:53:35.719Z,9.55
2022-11-12T08:56:21.523Z,9.66
2022-11-12T08:59:07.580Z,9.60
2022-11-12T09:01:53.227Z,9.79
2022-11-12T09:04:38.678Z,9.98
2022-11-12T09:10:29.746Z,10.15
2022-11-12T09:13:14.799Z,10.29
2022-11-12T09:16:07.022Z,10.30
2022-11-12T09:18:52.170Z,10.37
2022-11-12T09:21:37.038Z,10.42
2022-11-12T09:24:23.810Z,10.47
2022-11-12T09:27:09.018Z,10.57
2022-11-12T09:29:55.614Z,10.49
2022-11-12T09:32:46.939Z,10.49
2022-11-12T09:35:32.246Z,10.60
2022-11-12T09:38:20.880Z,10.75
2022-11-12T09:41:22.672Z,10.63
2022-11-12T09:44:12.019Z,10.68
2022-11-12T09:47:03.144Z,10.84
2022-11-12T09:49:51.247Z,10.94
2022-11-12T09:52:37.754Z,10.90
2022-11-12T09:55:42.981Z,11.01
2022-11-12T09:58:34.235Z,11.11
2022-11-12T10:01:32.318Z,11.23
2022-11-12T10:04:47.824Z,11.46
2022-11-12T10:07:40.345Z,11.27
2022-11-12T10:10:28.715Z,11.39
2022-11-12T10:13:17.341Z,11.51
2022-11-12T10:16:24.520Z,11.49
2022-11-12T10:19:29.410Z,11.36
2022-11-12T10:22:31.479Z,11.57
2022-11-12T10:25:20.785Z,11.63
2022-11-12T10:28:20.131Z,11.62
2022-11-12T10:31:10.937Z,12.01
2022-11-12T10:34:00.820Z,12.06
2022-11-12T10:36:49.548Z,12.18
2022-11-12T10:39:35.347Z,12.26
2022-11-12T10:42:21.231Z,12.35
2022-11-12T10:45:18.495Z,12.50
2022-11-12T10:48:03.836Z,12.54
2022-11-12T10:50:49.192Z,12.70
2022-11-12T10:53:35.548Z,12.79
2022-11-12T10:56:30.729Z,12.49
2022-11-12T10:59:15.741Z,12.77
2022-11-12T11:02:01.135Z,12.74
2022-11-12T11:04:46.844Z,12.87
2022-11-12T11:07:31.981Z,13.02
2022-11-12T11:10:43.347Z,13.03
2022-11-12T11:13:28.977Z,12.97
2022-11-12T11:16:15.430Z,13.07
2022-11-12T11:19:04.994Z,13.28
2022-11-12T11:21:49.833Z,12.86
2022-11-12T11:24:39.262Z,12.79
2022-11-12T11:27:41.323Z,12.72
2022-11-12T11:30:28.759Z,12.73
2022-11-12T11:33:29.244Z,12.75
2022-11-12T11:36:17.875Z,12.63
2022-11-12T11:39:15.313Z,12.87
2022-11-12T11:42:03.669Z,12.94
2022-11-12T11:44:58.684Z,13.17
2022-11-12T11:48:02.848Z,12.88
2022-11-12T11:50:59.280Z,12.81
2022-11-12T11:53:44.190Z,12.64
2022-11-12T11:56:31.909Z,12.66
2022-11-12T11:59:20.634Z,12.77
2022-11-12T12:02:05.563Z,12.77
2022-11-12T12:05:10.105Z,12.79
2022-11-12T12:07:57.795Z,12.87
2022-11-12T12:11:08.262Z,13.01
2022-11-12T12:13:57.695Z,13.03
2022-11-12T12:16:47.040Z,12.95
2022-11-12T12:19:52.091Z,12.82
2022-11-12T12:22:38.626Z,13.01
2022-11-12T12:25:25.626Z,13.05
2022-11-12T12:28:20.068Z,13.11
2022-11-12T12:31:07.235Z,12.89
2022-11-12T12:34:05.653Z,12.84
2022-11-12T12:36:52.366Z,12.85
2022-11-12T12:39:43.584Z,12.68
2022-11-12T12:42:43.162Z,13.02
2022-11-12T12:45:37.430Z,13.11
2022-11-12T12:48:25.994Z,13.13
2022-11-12T12:51:11.948Z,13.05
2022-11-12T12:53:57.063Z,13.03
2022-11-12T12:56:42.851Z,13.13
2022-11-12T12:59:27.779Z,13.15
2022-11-12T13:02:19.575Z,13.05
2022-11-12T13:05:05.109Z,13.14
2022-11-12T13:07:52.917Z,13.20
2022-11-12T13:10:44.602Z,13.36
2022-11-12T13:13:32.740Z,13.39
2022-11-12T13:16:36.843Z,13.38
2022-11-12T13:19:28.522Z,13.53
2022-11-12T13:22:19.994Z,13.49
2022-11-12T13:25:08.171Z,13.50
2022-11-12T13:27:53.164Z,13.41
2022-11-12T13:30:41.785Z,13.57
2022-11-12T13:33:29.277Z,13.06
2022-11-12T13:36:32.763Z,13.44
2022-11-12T13:39:19.086Z,13.53
2022-11-12T13:42:27.793Z,13.56
2022-11-12T13:45:13.351Z,13.73
2022-11-12T13:47:58.258Z,13.61
2022-11-12T13:50:43.291Z,13.78
2022-11-12T13:53:28.639Z,13.61
2022-11-12T13:56:26.384Z,13.63
2022-11-12T13:59:15.164Z,13.41
2022-11-12T14:02:02.798Z,13.66
2022-11-12T14:04:48.195Z,13.56
2022-11-12T14:07:54.398Z,13.64
2022-11-12T14:10:46.441Z,13.55
2022-11-12T14:13:45.690Z,13.53
2022-11-12T14:16:33.880Z,13.42
2022-11-12T14:19:34.934Z,13.46
2022-11-12T14:22:20.428Z,13.30
2022-11-12T14:25:13.844Z,13.40
2022-11-12T14:27:58.928Z,13.39
2022-11-12T14:30:44.781Z,13.37
2022-11-12T14:33:30.811Z,13.20
2022-11-12T14:36:16.502Z,13.04
2022-11-12T14:39:01.402Z,12.93
2022-11-12T14:41:47.786Z,12.98
2022-11-12T14:44:33.876Z,12.99
2022-11-12T14:47:19.114Z,12.97
2022-11-12T14:50:04.249Z,12.96
2022-11-12T14:52:49.642Z,12.79
2022-11-12T14:55:35.960Z,12.61
2022-11-12T14:58:21.606Z,12.38
2022-11-12T15:01:59.290Z,12.28
2022-11-12T15:04:26.367Z,12.22
2022-11-12T15:07:27.512Z,12.07
2022-11-12T15:10:31.603Z,12.04
2022-11-12T15:13:21.253Z,11.93
2022-11-12T15:16:10.026Z,11.84
2022-11-12T15:19:01.332Z,11.99
2022-11-12T15:22:04.637Z,11.80
2022-11-12T15:24:49.804Z,11.87
2022-11-12T15:27:38.820Z,11.62
2022-11-12T15:30:25.430Z,11.72
2022-11-12T15:33:13.768Z,11.55
2022-11-12T15:35:59.571Z,11.36
2022-11-12T15:38:49.085Z,11.29
2022-11-12T15:41:35.673Z,11.17
2022-11-12T15:44:20.938Z,11.10
2022-11-12T15:47:06.280Z,11.15
2022-11-12T15:49:52.380Z,11.18
2022-11-12T15:52:37.975Z,11.22
2022-11-12T15:55:24.496Z,11.01
2022-11-12T15:58:17.772Z,10.79
2022-11-12T16:01:03.795Z,10.59
2022-11-12T16:03:48.975Z,10.50
2022-11-12T16:06:34.100Z,10.43
2022-11-12T16:09:19.092Z,10.35
2022-11-12T16:12:03.929Z,10.25
2022-11-12T16:14:48.863Z,10.22
2022-11-12T16:17:33.874Z,10.19
2022-11-12T16:20:26.929Z,10.33
2022-11-12T16:23:12.326Z,10.18
2022-11-12T16:25:57.393Z,10.13
2022-11-12T16:28:43.855Z,9.96
2022-11-12T16:31:28.970Z,9.94
2022-11-12T16:34:13.913Z,9.87
2022-11-12T16:36:58.967Z,9.79
2022-11-12T16:39:43.865Z,9.75
2022-11-12T16:42:28.727Z,9.69
2022-11-12T16:45:17.665Z,9.61
2022-11-12T16:48:03.089Z,9.55
2022-11-12T16:50:48.234Z,9.52
2022-11-12T16:53:33.429Z,9.50
2022-11-12T16:56:19.991Z,9.39
2022-11-12T16:59:05.500Z,9.32
2022-11-12T17:01:51.050Z,9.29
2022-11-12T17:04:36.374Z,9.29
2022-11-12T17:07:21.437Z,9.26
2022-11-12T17:10:07.069Z,9.16
2022-11-12T17:12:52.791Z,9.11
2022-11-12T17:15:37.818Z,9.06
2022-11-12T17:18:22.654Z,9.04
2022-11-12T17:21:08.569Z,8.98
2022-11-12T17:23:55.039Z,8.97
2022-11-12T17:26:39.890Z,8.88
2022-11-12T17:29:24.859Z,8.92
2022-11-12T17:32:10.399Z,8.84
2022-11-12T17:34:56.009Z,8.84
2022-11-12T17:37:40.950Z,8.83
2022-11-12T17:40:25.862Z,8.86
2022-11-12T17:43:10.903Z,8.93
2022-11-12T17:45:56.008Z,9.07
2022-11-12T17:48:41.302Z,8.86
2022-11-12T17:51:27.359Z,8.84
2022-11-12T17:54:12.671Z,8.66
2022-11-12T17:56:58.176Z,8.69
2022-11-12T17:59:43.098Z,8.62
2022-11-12T18:02:29.126Z,8.55
2022-11-12T18:08:00.056Z,8.49
2022-11-12T18:10:45.673Z,8.45
2022-11-12T18:13:31.153Z,8.39
2022-11-12T18:16:20.374Z,8.36
2022-11-12T18:19:05.701Z,8.32
2022-11-12T18:21:52.817Z,8.29
2022-11-12T18:24:38.118Z,8.25
2022-11-12T18:27:23.057Z,8.33
2022-11-12T18:30:16.399Z,8.35
2022-11-12T18:33:04.531Z,8.17
2022-11-12T18:35:49.424Z,8.24
2022-11-12T18:38:35.250Z,8.18
2022-11-12T18:41:22.923Z,8.22
2022-11-12T18:44:07.883Z,8.18
2022-11-12T18:46:52.938Z,8.17
2022-11-12T18:49:38.025Z,8.17
2022-11-12T18:52:22.817Z,8.14
2022-11-12T18:55:08.664Z,8.07
2022-11-12T18:57:53.900Z,8.05
2022-11-12T19:00:38.739Z,7.98
2022-11-12T19:03:23.725Z,7.97
2022-11-12T19:06:11.450Z,8.04
2022-11-12T19:09:00.333Z,7.98
2022-11-12T19:11:45.689Z,7.98
2022-11-12T19:14:30.552Z,8.06
2022-11-12T19:17:15.736Z,7.93
2022-11-12T19:20:00.643Z,7.95
2022-11-12T19:22:45.676Z,8.00
2022-11-12T19:25:30.662Z,7.99
2022-11-12T19:28:15.618Z,7.89
2022-11-12T19:31:04.271Z,7.90
2022-11-12T19:33:49.309Z,7.94
2022-11-12T19:36:34.412Z,7.89
2022-11-12T19:39:19.605Z,7.85
2022-11-12T19:42:07.266Z,7.73
2022-11-12T19:44:52.640Z,7.73
2022-11-12T19:47:37.792Z,7.71
2022-11-12T19:50:24.821Z,7.71
2022-11-12T19:53:10.616Z,7.74
2022-11-12T19:55:58.895Z,7.65
2022-11-12T19:58:44.842Z,7.62
2022-11-12T20:01:29.704Z,7.59
2022-11-12T20:04:15.757Z,7.62
2022-11-12T20:07:03.264Z,7.70
2022-11-12T20:09:48.455Z,7.68
2022-11-12T20:12:33.931Z,7.60
2022-11-12T20:15:21.999Z,7.61
2022-11-12T20:18:07.336Z,7.56
2022-11-12T20:20:55.855Z,7.56
2022-11-12T20:23:43.067Z,7.42
2022-11-12T20:26:28.274Z,7.47
2022-11-12T20:29:13.233Z,7.43
2022-11-12T20:31:58.356Z,7.40
2022-11-12T20:34:43.252Z,7.38
2022-11-12T20:37:29.472Z,7.39
2022-11-12T20:40:15.011Z,7.37
2022-11-12T20:43:00.243Z,7.37
2022-11-12T20:45:49.906Z,7.29
2022-11-12T20:48:38.849Z,7.27
2022-11-12T20:51:29.105Z,7.17
2022-11-12T20:54:14.416Z,7.30
2022-11-12T20:57:01.203Z,7.26
2022-11-12T20:59:48.280Z,7.29
2022-11-12T21:02:36.053Z,7.20
2022-11-12T21:05:21.174Z,7.26
2022-11-12T21:08:06.140Z,7.15
2022-11-12T21:10:51.356Z,7.20
2022-11-12T21:13:36.658Z,7.15
2022-11-12T21:16:21.749Z,7.07
2022-11-12T21:19:07.174Z,7.02
2022-11-12T21:21:52.101Z,6.98
2022-11-12T21:24:36.985Z,6.92
2022-11-12T21:27:22.038Z,6.92
2022-11-12T21:30:07.127Z,6.96
2022-11-12T21:32:52.408Z,6.97
2022-11-12T21:35:37.245Z,6.94
2022-11-12T21:38:23.189Z,6.97
2022-11-12T21:41:09.742Z,6.91
2022-11-12T21:43:55.799Z,6.90
2022-11-12T21:46:41.256Z,6.89
2022-11-12T21:49:26.147Z,6.78
2022-11-12T21:52:13.269Z,6.83
2022-11-12T21:54:59.149Z,6.81
2022-11-12T21:57:44.165Z,6.78
2022-11-12T22:00:44.288Z,6.91
2022-11-12T22:03:32.650Z,6.89
2022-11-12T22:06:18.103Z,6.73
2022-11-12T22:09:03.763Z,6.74
2022-11-12T22:11:48.912Z,6.75
2022-11-12T22:14:33.847Z,6.60
2022-11-12T22:17:19.724Z,6.65
2022-11-12T22:20:05.151Z,6.60
2022-11-12T22:22:51.334Z,6.60
2022-11-12T22:25:36.393Z,6.53
2022-11-12T22:28:21.394Z,6.53
2022-11-12T22:31:13.486Z,6.55
2022-11-12T22:33:59.820Z,6.57
2022-11-12T22:36:44.898Z,6.53
2022-11-12T22:39:29.887Z,6.62
2022-11-12T22:42:14.703Z,6.71
2022-11-12T22:44:59.690Z,6.64
2022-11-12T22:47:44.585Z,6.88
2022-11-12T22:50:29.614Z,6.97
2022-11-12T22:53:14.883Z,6.94
2022-11-12T22:56:03.701Z,6.79
2022-11-12T22:58:49.003Z,6.83
2022-11-12T23:01:34.868Z,6.73
2022-11-12T23:04:20.005Z,6.72
2022-11-12T23:07:05.119Z,6.73
2022-11-12T23:09:50.522Z,6.66
2022-11-12T23:12:35.668Z,6.73
2022-11-12T23:15:20.485Z,6.67
2022-11-12T23:18:05.414Z,6.78
2022-11-12T23:20:50.357Z,6.81
2022-11-12T23:23:36.068Z,6.71
2022-11-12T23:26:23.227Z,6.67
2022-11-12T23:29:09.733Z,6.60
2022-11-12T23:31:54.686Z,6.56
2022-11-12T23:34:39.572Z,6.70
2022-11-12T23:37:24.647Z,6.67
2022-11-12T23:40:09.740Z,6.72
2022-11-12T23:42:55.178Z,6.68
2022-11-12T23:45:40.522Z,6.78
2022-11-12T23:48:25.934Z,6.93
2022-11-12T23:51:12.439Z,6.76
2022-11-12T23:53:57.435Z,6.82
2022-11-12T23:56:42.188Z,6.88
2022-11-12T23:59:27.389Z,6.89
